Terminal Aerodrome Forecast
Issued by NWS

Home | Current Version | Previous Version | Graphics & Text | Print | Product List | Glossary On
Versions: 1 2 3 4 5 6 7 8 9 10 11 12 13 14 15 16 17 18 19 20 21 22 23 24 25
000
FTUS43 KBIS 100308 AAA
TAFMOT
TAF AMD
KMOT 100308Z 1003/1024 28018G24KT P6SM SKC WS020/32045KT
     FM100400 30020KT P6SM SCT250
     FM102100 27012KT P6SM OVC100=

USA.gov is the U.S. government's official web portal to all federal, state and local government web resources and services.